Time;durP1;ratioP1;P1;durP2;ratioP2;P2;SDS_P1;SDS_P2;PMS_P1;PMS_P2;Temp;Humidity;BMP_temperature;BMP_pressure;BME280_temperature;BME280_humidity;BME280_pressure;Samples;Min_cycle;Max_cycle;Signal;HPM_P1;HPM_P2
2023/09/20 00:00:36;;;;;;;11.55;6.03;;;512.50;2380.80;;;;;;5089888;28;20035;-71
2023/09/20 00:03:03;;;;;;;13.98;5.05;;;512.50;2380.80;;;;;;5089975;28;20012;-66
2023/09/20 00:05:29;;;;;;;11.05;4.88;;;512.50;2380.80;;;;;;5089801;28;20035;-70
2023/09/20 00:07:55;;;;;;;6.95;4.55;;;512.60;2380.80;;;;;;5089537;28;20016;-67
2023/09/20 00:10:24;;;;;;;12.35;5.57;;;512.60;2380.80;;;;;;5089396;28;20032;-69
2023/09/20 00:12:50;;;;;;;9.52;4.82;;;512.60;2380.80;;;;;;5075819;28;20029;-66
2023/09/20 00:15:16;;;;;;;12.38;4.70;;;512.60;2380.80;;;;;;5089879;28;20024;-72
2023/09/20 00:17:43;;;;;;;9.40;4.57;;;512.60;2380.80;;;;;;5089069;28;20024;-69
2023/09/20 00:20:12;;;;;;;12.30;4.97;;;512.60;2380.80;;;;;;5089435;28;20016;-72
2023/09/20 00:22:43;;;;;;;8.32;4.68;;;512.50;2380.80;;;;;;5089486;28;20473;-75
2023/09/20 00:25:13;;;;;;;9.55;5.38;;;512.50;2380.80;;;;;;5088280;28;20020;-67
2023/09/20 00:27:40;;;;;;;8.23;5.03;;;512.50;2380.80;;;;;;5068254;28;20029;-65
2023/09/20 00:30:10;;;;;;;12.38;5.85;;;512.40;2380.80;;;;;;5089562;28;20604;-69
2023/09/20 00:32:40;;;;;;;8.55;4.82;;;512.40;2380.80;;;;;;5089182;28;20023;-71
2023/09/20 00:35:10;;;;;;;11.80;5.43;;;512.20;2380.80;;;;;;5088781;28;20024;-71
2023/09/20 00:37:40;;;;;;;11.43;5.15;;;487.20;2380.80;;;;;;5088922;28;20039;-72
2023/09/20 00:40:18;;;;;;;10.00;4.28;;;487.10;2380.80;;;;;;5088480;28;20567;-67
2023/09/20 00:42:46;;;;;;;9.85;5.20;;;487.10;2380.80;;;;;;5088808;28;20024;-69
2023/09/20 00:45:15;;;;;;;14.35;5.60;;;487.00;2380.80;;;;;;5089132;28;20024;-70
2023/09/20 00:47:47;;;;;;;8.27;4.80;;;486.80;2048.00;;;;;;5089260;28;20020;-66
2023/09/20 00:50:14;;;;;;;8.95;4.85;;;486.90;2380.80;;;;;;5088366;28;20081;-70
2023/09/20 00:52:46;;;;;;;17.33;5.07;;;486.90;2380.80;;;;;;5088785;28;20078;-66
2023/09/20 00:55:20;;;;;;;10.75;5.25;;;486.80;2380.80;;;;;;5088885;28;20374;-69
2023/09/20 00:57:47;;;;;;;8.60;5.03;;;486.90;2380.80;;;;;;5089150;28;20230;-65
2023/09/20 01:00:21;;;;;;;9.73;5.05;;;487.00;2380.80;;;;;;5081516;28;20021;-66
2023/09/20 01:02:51;;;;;;;11.57;5.38;;;487.10;2380.80;;;;;;5068089;28;20068;-65
2023/09/20 01:05:26;;;;;;;11.15;5.20;;;487.00;2380.80;;;;;;5087068;28;20020;-71
2023/09/20 01:07:57;;;;;;;8.75;4.80;;;487.00;2380.80;;;;;;5088739;28;20031;-70
2023/09/20 01:10:24;;;;;;;7.45;5.07;;;487.00;2380.80;;;;;;5062358;28;20048;-72
2023/09/20 01:13:04;;;;;;;11.07;5.07;;;487.00;2380.80;;;;;;5088783;28;20043;-72
2023/09/20 01:15:31;;;;;;;7.90;4.85;;;486.80;2380.80;;;;;;5088839;28;20044;-70
2023/09/20 01:17:58;;;;;;;15.80;5.10;;;486.80;2380.80;;;;;;5088793;28;20497;-72
2023/09/20 01:20:25;;;;;;;9.18;4.97;;;486.80;2380.80;;;;;;5089004;28;20016;-72
2023/09/20 01:22:54;;;;;;;13.07;5.65;;;486.80;2380.80;;;;;;5088798;28;20102;-69
2023/09/20 01:25:27;;;;;;;9.07;5.20;;;486.80;2380.80;;;;;;5089090;28;20028;-67
2023/09/20 01:27:59;;;;;;;11.63;5.85;;;486.80;2380.80;;;;;;5088576;28;20103;-71
2023/09/20 01:30:29;;;;;;;12.73;5.13;;;486.60;2380.80;;;;;;5088524;28;20062;-68
2023/09/20 01:33:00;;;;;;;11.05;5.18;;;486.50;2380.80;;;;;;5088225;28;20026;-67
2023/09/20 01:35:29;;;;;;;8.00;4.78;;;486.40;2380.80;;;;;;5088795;28;20063;-67
2023/09/20 01:37:55;;;;;;;10.55;5.05;;;486.40;2380.80;;;;;;5085329;28;20040;-73
2023/09/20 01:40:25;;;;;;;6.45;4.80;;;486.40;2380.80;;;;;;5070004;28;20044;-69
2023/09/20 01:42:59;;;;;;;10.25;4.65;;;486.40;2380.80;;;;;;5075465;28;20067;-65
2023/09/20 01:45:25;;;;;;;11.82;4.60;;;461.70;2380.80;;;;;;5088553;28;20073;-66
2023/09/20 01:47:56;;;;;;;9.43;5.10;;;486.40;2380.80;;;;;;5088446;28;20036;-65
2023/09/20 01:50:24;;;;;;;9.18;4.82;;;461.70;2380.80;;;;;;5088834;28;20020;-66
2023/09/20 01:52:51;;;;;;;9.25;5.07;;;461.70;2380.80;;;;;;5088487;28;20111;-69
2023/09/20 01:55:20;;;;;;;8.60;4.47;;;461.70;2380.80;;;;;;5087823;28;20101;-69
2023/09/20 01:57:47;;;;;;;12.23;5.20;;;461.70;2380.80;;;;;;5088407;28;20385;-70
2023/09/20 02:00:49;;;;;;;8.82;4.82;;;486.40;2380.80;;;;;;5088372;28;20048;-69
2023/09/20 02:03:13;;;;;;;14.80;5.93;;;461.70;2380.80;;;;;;5082938;28;20055;-66
2023/09/20 02:05:39;;;;;;;11.60;5.28;;;461.70;2099.20;;;;;;5092102;28;20036;-67
2023/09/20 02:08:07;;;;;;;12.63;6.18;;;461.70;2150.40;;;;;;5091709;28;20359;-67
2023/09/20 02:10:34;;;;;;;9.90;5.35;;;486.40;2380.80;;;;;;5091814;28;20044;-66
2023/09/20 02:13:00;;;;;;;10.23;5.20;;;486.50;2380.80;;;;;;5092081;28;20474;-68
2023/09/20 02:15:28;;;;;;;12.35;5.50;;;486.50;2380.80;;;;;;5078467;28;20025;-65
2023/09/20 02:17:54;;;;;;;10.68;4.72;;;486.50;2380.80;;;;;;5075974;28;20450;-67
2023/09/20 02:20:23;;;;;;;9.63;5.82;;;486.50;2380.80;;;;;;5071782;28;20028;-66
2023/09/20 02:22:52;;;;;;;9.95;5.47;;;486.40;2380.80;;;;;;5087616;28;20481;-69
2023/09/20 02:25:21;;;;;;;10.63;5.57;;;461.70;2380.80;;;;;;5091784;28;20032;-66
2023/09/20 02:27:49;;;;;;;10.23;5.45;;;461.60;2150.40;;;;;;5091108;28;20096;-67
2023/09/20 02:30:16;;;;;;;12.15;6.43;;;461.50;2380.80;;;;;;5091216;28;20101;-66
2023/09/20 02:32:42;;;;;;;9.80;6.10;;;461.50;2380.80;;;;;;5091052;28;20016;-65
2023/09/20 02:35:09;;;;;;;13.30;5.47;;;461.50;2380.80;;;;;;5091420;28;20023;-70
2023/09/20 02:37:35;;;;;;;8.32;5.30;;;461.50;2380.80;;;;;;5090488;28;20028;-67
2023/09/20 02:40:09;;;;;;;21.23;5.80;;;461.50;2380.80;;;;;;5090855;28;20055;-65
2023/09/20 02:42:48;;;;;;;17.30;7.20;;;461.50;2252.80;;;;;;5091391;28;20028;-72
2023/09/20 02:45:18;;;;;;;7.80;5.57;;;461.50;1996.80;;;;;;5080971;28;20028;-67
2023/09/20 02:47:48;;;;;;;13.25;5.82;;;461.40;2380.80;;;;;;5073915;28;20031;-71
2023/09/20 02:50:28;;;;;;;9.40;5.18;;;461.50;2380.80;;;;;;5090791;28;20068;-71
2023/09/20 02:52:56;;;;;;;6.75;4.32;;;461.60;2380.80;;;;;;5091285;28;20027;-68
2023/09/20 02:55:23;;;;;;;12.35;5.22;;;461.60;2380.80;;;;;;5072016;28;20021;-69
2023/09/20 02:57:52;;;;;;;14.82;5.57;;;461.70;2380.80;;;;;;5071361;28;20025;-65
2023/09/20 03:00:21;;;;;;;12.80;5.93;;;461.60;2380.80;;;;;;5088099;28;20017;-69
2023/09/20 03:02:52;;;;;;;8.95;5.75;;;461.60;2380.80;;;;;;5090884;28;20032;-69
2023/09/20 03:05:28;;;;;;;16.48;6.18;;;461.60;2380.80;;;;;;5083820;28;20017;-72
2023/09/20 03:07:54;;;;;;;7.45;5.05;;;461.70;2380.80;;;;;;5072820;28;20522;-72
2023/09/20 03:10:21;;;;;;;7.65;5.10;;;461.70;2380.80;;;;;;5090757;28;20032;-71
2023/09/20 03:12:49;;;;;;;13.48;6.38;;;461.60;2380.80;;;;;;5090394;28;20036;-68
2023/09/20 03:15:17;;;;;;;8.75;5.28;;;461.70;2380.80;;;;;;5072526;28;20390;-70
2023/09/20 03:17:47;;;;;;;12.55;5.32;;;461.70;2380.80;;;;;;5084113;28;20397;-66
2023/09/20 03:20:22;;;;;;;11.13;5.18;;;486.40;2380.80;;;;;;5090467;28;20019;-69
2023/09/20 03:22:53;;;;;;;11.15;5.35;;;461.70;2380.80;;;;;;5090497;28;20044;-69
2023/09/20 03:25:21;;;;;;;11.43;5.03;;;461.60;2380.80;;;;;;5090765;28;20426;-69
2023/09/20 03:27:48;;;;;;;11.02;5.70;;;461.60;2380.80;;;;;;5090679;28;20024;-65
2023/09/20 03:30:16;;;;;;;7.35;5.38;;;461.40;1996.80;;;;;;5090193;28;20074;-68
2023/09/20 03:32:43;;;;;;;11.02;5.07;;;461.20;2380.80;;;;;;5090860;28;20020;-72
2023/09/20 03:35:10;;;;;;;10.30;5.10;;;461.20;2380.80;;;;;;5088826;28;20128;-69
2023/09/20 03:37:44;;;;;;;8.13;5.32;;;461.30;2380.80;;;;;;5061915;28;20037;-69
2023/09/20 03:40:19;;;;;;;9.20;4.60;;;461.30;2048.00;;;;;;5071725;28;20051;-65
2023/09/20 03:42:46;;;;;;;13.80;6.15;;;461.20;2380.80;;;;;;5088971;28;20073;-65
2023/09/20 03:45:14;;;;;;;14.20;4.93;;;461.10;2380.80;;;;;;5090022;28;20120;-69
2023/09/20 03:47:53;;;;;;;10.30;5.18;;;461.20;2380.80;;;;;;5089931;28;20032;-69
2023/09/20 03:50:19;;;;;;;17.20;5.57;;;461.20;2380.80;;;;;;5090466;28;20500;-67
2023/09/20 03:52:46;;;;;;;19.77;6.03;;;461.20;2227.20;;;;;;5090163;28;20051;-68
2023/09/20 03:55:12;;;;;;;10.60;5.03;;;461.30;2380.80;;;;;;5089882;28;20063;-69
2023/09/20 03:57:38;;;;;;;11.60;5.35;;;461.30;2380.80;;;;;;5090043;28;20550;-67
2023/09/20 04:00:24;;;;;;;13.65;5.63;;;461.30;2380.80;;;;;;5089942;28;20028;-66
2023/09/20 04:02:53;;;;;;;9.27;5.45;;;461.20;2380.80;;;;;;5089971;28;20036;-64
2023/09/20 04:05:19;;;;;;;11.70;5.13;;;461.10;2073.60;;;;;;5089347;28;20028;-68
2023/09/20 04:07:47;;;;;;;17.05;5.40;;;461.20;2380.80;;;;;;5089385;28;20471;-66
2023/09/20 04:10:15;;;;;;;11.48;6.35;;;461.20;2380.80;;;;;;5089221;28;20020;-67
2023/09/20 04:12:41;;;;;;;10.32;5.13;;;461.20;2380.80;;;;;;5087533;28;20292;-65
2023/09/20 04:15:10;;;;;;;14.77;4.82;;;461.30;2380.80;;;;;;5066352;28;20021;-66
2023/09/20 04:17:36;;;;;;;10.18;4.97;;;461.30;2380.80;;;;;;5082487;28;20518;-68
2023/09/20 04:20:05;;;;;;;14.02;5.63;;;461.30;2380.80;;;;;;5089464;28;20035;-68
2023/09/20 04:22:32;;;;;;;6.53;4.15;;;461.30;2380.80;;;;;;5088479;28;20023;-67
2023/09/20 04:25:01;;;;;;;10.30;4.47;;;461.40;2380.80;;;;;;5088544;28;20027;-67
2023/09/20 04:27:31;;;;;;;11.25;5.65;;;461.40;2380.80;;;;;;5088690;28;20031;-69
2023/09/20 04:29:56;;;;;;;11.48;5.63;;;461.40;2380.80;;;;;;5089226;28;20024;-66
2023/09/20 04:32:23;;;;;;;10.00;6.05;;;461.40;2380.80;;;;;;5088911;28;20246;-66
2023/09/20 04:34:53;;;;;;;16.58;5.38;;;461.40;2380.80;;;;;;5088952;28;20028;-66
2023/09/20 04:37:20;;;;;;;11.40;5.88;;;461.50;2380.80;;;;;;5089002;28;20505;-65
2023/09/20 04:39:47;;;;;;;8.75;5.43;;;461.60;2380.80;;;;;;5088538;28;20036;-73
2023/09/20 04:42:13;;;;;;;7.40;6.18;;;461.60;2380.80;;;;;;5088738;28;20036;-71
2023/09/20 04:44:41;;;;;;;11.55;5.95;;;461.70;2380.80;;;;;;5089419;28;20619;-66
2023/09/20 04:47:07;;;;;;;8.55;5.80;;;461.70;2380.80;;;;;;5072852;28;20029;-66
2023/09/20 04:49:33;;;;;;;7.30;5.20;;;486.40;2380.80;;;;;;5073009;28;20032;-69
2023/09/20 04:52:00;;;;;;;8.27;5.65;;;486.40;2380.80;;;;;;5088737;28;20056;-71
2023/09/20 04:54:27;;;;;;;8.13;5.38;;;486.50;2380.80;;;;;;5088862;28;20036;-69
2023/09/20 04:56:53;;;;;;;8.30;5.35;;;486.50;2380.80;;;;;;5088846;28;20036;-74
2023/09/20 04:59:19;;;;;;;11.90;4.65;;;486.60;2380.80;;;;;;5088735;28;20017;-69
2023/09/20 05:01:45;;;;;;;12.23;4.53;;;486.70;2380.80;;;;;;5087890;28;20028;-70
2023/09/20 05:04:13;;;;;;;9.80;4.72;;;486.80;2380.80;;;;;;5088875;28;20020;-73
2023/09/20 05:06:42;;;;;;;9.70;4.85;;;487.00;2380.80;;;;;;5089092;28;20032;-72
2023/09/20 05:09:12;;;;;;;6.93;4.47;;;487.10;2380.80;;;;;;5088382;28;20024;-70
2023/09/20 05:11:38;;;;;;;13.45;4.47;;;487.30;2380.80;;;;;;5088035;28;20385;-69
2023/09/20 05:14:07;;;;;;;15.15;5.07;;;512.00;2380.80;;;;;;5088256;28;20016;-72
2023/09/20 05:16:33;;;;;;;7.90;4.22;;;512.10;2380.80;;;;;;5087675;28;20036;-71
2023/09/20 05:18:59;;;;;;;12.52;4.85;;;512.30;2380.80;;;;;;5088856;28;20153;-72
2023/09/20 05:21:25;;;;;;;8.13;4.82;;;512.40;2380.80;;;;;;5088107;28;20486;-71
2023/09/20 05:23:51;;;;;;;10.18;4.43;;;512.50;2380.80;;;;;;5082971;28;20096;-72
2023/09/20 05:26:18;;;;;;;11.75;4.63;;;512.50;2380.80;;;;;;5072258;28;20162;-67
2023/09/20 05:28:44;;;;;;;9.90;4.65;;;512.60;2380.80;;;;;;5088755;28;20489;-69
2023/09/20 05:31:10;;;;;;;10.20;4.90;;;512.70;2380.80;;;;;;5088439;28;20491;-74
2023/09/20 05:33:35;;;;;;;22.55;5.85;;;512.80;2380.80;;;;;;5088305;28;20022;-69
2023/09/20 05:36:01;;;;;;;11.07;4.90;;;512.90;2380.80;;;;;;5089946;28;20032;-70
2023/09/20 05:38:27;;;;;;;9.98;5.38;;;512.90;2380.80;;;;;;5091943;28;20016;-74
2023/09/20 05:40:53;;;;;;;10.32;5.20;;;512.90;2380.80;;;;;;5090853;28;20170;-69
2023/09/20 05:43:19;;;;;;;9.70;5.03;;;;;;;;;;5092002;28;20482;-70
2023/09/20 05:45:45;;;;;;;6.90;5.05;;;563.20;2432.00;;;;;;5091850;28;20119;-69
2023/09/20 05:48:12;;;;;;;11.45;4.68;;;563.30;2432.00;;;;;;5090341;28;20118;-71
2023/09/20 05:50:38;;;;;;;8.70;4.93;;;;;;;;;;5087026;28;20020;-70
2023/09/20 05:53:06;;;;;;;11.38;4.80;;;;;;;;;;5086750;28;20024;-67
2023/09/20 05:55:33;;;;;;;8.00;4.45;;;;;;;;;;5076519;28;20048;-73
2023/09/20 05:58:01;;;;;;;10.50;5.05;;;;;;;;;;5082415;28;20052;-68
2023/09/20 06:00:29;;;;;;;8.45;4.45;;;;;;;;;;5091628;28;20059;-66
2023/09/20 06:02:57;;;;;;;8.18;4.07;;;;;;;;;;5091371;28;20490;-67
2023/09/20 06:05:26;;;;;;;11.75;4.82;;;;;;;;;;5091723;28;20367;-66
2023/09/20 06:07:53;;;;;;;14.02;5.50;;;;;;;;;;5091185;28;20099;-66
2023/09/20 06:10:22;;;;;;;11.57;5.80;;;;;;;;;;5091502;28;20062;-66
2023/09/20 06:12:48;;;;;;;14.77;5.03;;;;;;;;;;5091011;28;20089;-67
2023/09/20 06:15:14;;;;;;;10.43;5.53;;;;;;;;;;5091262;28;20031;-65
2023/09/20 06:17:42;;;;;;;24.27;13.63;;;;;;;;;;5090884;28;20027;-69
2023/09/20 06:20:11;;;;;;;18.92;7.93;;;;;;;;;;5091455;28;20065;-73
2023/09/20 06:22:38;;;;;;;9.82;5.68;;;;;;;;;;5088338;28;20084;-67
2023/09/20 06:25:05;;;;;;;9.85;5.28;;;;;;;;;;5080069;28;20120;-69
2023/09/20 06:27:31;;;;;;;12.20;5.10;;;;;;;;;;5071952;28;20070;-70
2023/09/20 06:29:58;;;;;;;9.50;5.55;;;;;;;;;;5082467;28;20526;-67
2023/09/20 06:32:24;;;;;;;11.20;6.13;;;640.40;2432.00;;;;;;5090391;28;20490;-69
2023/09/20 06:34:50;;;;;;;9.70;5.80;;;665.90;2432.00;;;;;;5091087;28;20081;-67
2023/09/20 06:37:16;;;;;;;9.57;6.65;;;692.10;2432.00;;;;;;5090496;28;20024;-72
2023/09/20 06:39:45;;;;;;;12.25;6.20;;;742.90;2406.40;;;;;;5090811;28;20043;-65
2023/09/20 06:42:10;;;;;;;10.23;6.78;;;743.10;2355.20;;;;;;5090785;28;20485;-67
2023/09/20 06:44:38;;;;;;;12.80;6.82;;;768.80;2252.80;;;;;;5089407;28;20118;-64
2023/09/20 06:47:08;;;;;;;14.95;7.78;;;794.50;2124.80;;;;;;5070248;28;20047;-70
2023/09/20 06:49:38;;;;;;;12.60;8.57;;;820.00;1996.80;;;;;;5070703;28;20031;-73
2023/09/20 06:52:08;;;;;;;12.40;7.78;;;845.70;1945.60;;;;;;5090928;28;20099;-73
2023/09/20 06:54:36;;;;;;;9.82;8.40;;;870.80;1868.80;;;;;;5076019;28;20070;-73
2023/09/20 06:57:03;;;;;;;13.10;8.73;;;871.10;1843.20;;;;;;5081960;28;20099;-67
2023/09/20 06:59:33;;;;;;;9.98;8.45;;;896.90;1740.80;;;;;;5081827;28;20035;-71
2023/09/20 07:02:00;;;;;;;12.18;7.93;;;922.20;1740.80;;;;;;5074460;28;20024;-69
2023/09/20 07:04:26;;;;;;;15.18;7.88;;;947.40;1638.40;;;;;;5070421;28;20111;-71
2023/09/20 07:06:54;;;;;;;12.65;8.05;;;947.30;1612.80;;;;;;5071063;28;20095;-70
2023/09/20 07:09:20;;;;;;;9.95;8.07;;;947.80;1587.20;;;;;;5070712;28;20063;-69
2023/09/20 07:11:48;;;;;;;14.30;7.72;;;973.20;1561.60;;;;;;5070590;28;20052;-68
2023/09/20 07:14:14;;;;;;;19.27;8.18;;;947.60;1561.60;;;;;;5079727;28;20021;-69
2023/09/20 07:16:40;;;;;;;11.70;8.10;;;973.00;1536.00;;;;;;5077480;28;20108;-69
2023/09/20 07:19:06;;;;;;;15.05;8.57;;;948.10;1536.00;;;;;;5083433;28;20097;-70
2023/09/20 07:21:37;;;;;;;9.90;8.77;;;973.70;1510.40;;;;;;5081700;28;20527;-73
2023/09/20 07:24:06;;;;;;;13.10;8.75;;;998.50;1510.40;;;;;;5088593;28;20718;-72
2023/09/20 07:26:32;;;;;;;10.02;8.00;;;973.60;1536.00;;;;;;5090531;28;20059;-62
2023/09/20 07:28:59;;;;;;;14.00;7.80;;;998.60;1536.00;;;;;;5082136;28;20371;-62
2023/09/20 07:31:26;;;;;;;8.82;6.78;;;999.30;1459.20;;;;;;5085638;28;20020;-63
2023/09/20 07:33:55;;;;;;;10.50;7.30;;;1024.00;1484.80;;;;;;5077943;28;20036;-62
2023/09/20 07:36:22;;;;;;;12.10;7.35;;;1024.10;1459.20;;;;;;5072262;28;20475;-62
2023/09/20 07:38:48;;;;;;;11.50;6.85;;;1024.30;1433.60;;;;;;5076373;28;20039;-63
2023/09/20 07:41:17;;;;;;;9.00;6.82;;;999.20;1433.60;;;;;;5090499;28;20028;-68
2023/09/20 07:43:44;;;;;;;10.40;6.80;;;973.30;1484.80;;;;;;5089899;28;20020;-63
2023/09/20 07:46:10;;;;;;;7.53;6.93;;;998.90;1433.60;;;;;;5089931;28;20473;-63
2023/09/20 07:48:44;;;;;;;12.25;6.82;;;998.90;1408.00;;;;;;5089933;28;20020;-64
2023/09/20 07:51:11;;;;;;;7.45;5.88;;;973.30;1433.60;;;;;;5082788;28;20032;-64
2023/09/20 07:53:37;;;;;;;11.00;7.30;;;1024.20;1356.80;;;;;;5089077;28;20107;-63
2023/09/20 07:56:05;;;;;;;15.05;7.65;;;1049.90;1331.20;;;;;;5089498;28;20470;-63
2023/09/20 07:58:40;;;;;;;10.05;7.15;;;1049.70;1331.20;;;;;;5087877;28;20028;-64
2023/09/20 08:01:18;;;;;;;10.68;6.60;;;1050.30;1331.20;;;;;;5068987;28;20471;-64
2023/09/20 08:04:06;;;;;;;10.90;7.20;;;1075.70;1254.40;;;;;;5080060;28;20019;-64
2023/09/20 08:06:33;;;;;;;8.75;6.60;;;1050.50;1280.00;;;;;;5090227;28;20028;-63
2023/09/20 08:08:59;;;;;;;10.48;6.90;;;;;;;;;;5089690;28;20030;-63
2023/09/20 08:11:26;;;;;;;12.52;7.28;;;;;;;;;;5079555;28;20032;-63
2023/09/20 08:13:52;;;;;;;11.48;7.18;;;;;;;;;;5062573;28;20028;-65
2023/09/20 08:16:20;;;;;;;16.88;6.82;;;1075.20;1254.40;;;;;;5064832;28;20085;-64
2023/09/20 08:21:34;;;;;;;15.02;7.93;;;1050.00;1280.00;;;;;;5088236;28;20054;-62
2023/09/20 09:00:25;;;;;;;7.85;4.90;;;845.40;1561.60;;;;;;5056976;28;20385;-63
2023/09/20 09:02:59;;;;;;;7.78;4.65;;;819.80;1587.20;;;;;;5080379;28;20141;-62
2023/09/20 09:05:30;;;;;;;10.80;4.68;;;794.30;1664.00;;;;;;5077380;28;20028;-61
2023/09/20 09:07:57;;;;;;;11.07;6.03;;;794.00;1689.60;;;;;;5088885;28;20027;-62
2023/09/20 09:10:23;;;;;;;9.27;5.07;;;794.50;1689.60;;;;;;5088820;28;20407;-62
2023/09/20 09:12:49;;;;;;;7.00;4.57;;;793.70;1740.80;;;;;;5092710;28;20077;-61
2023/09/20 09:15:16;;;;;;;5.30;4.32;;;793.80;1689.60;;;;;;5079477;28;20107;-62
2023/09/20 09:17:43;;;;;;;8.65;3.97;;;768.60;1715.20;;;;;;5072420;28;20036;-62
2023/09/20 09:20:13;;;;;;;6.75;4.38;;;768.40;1715.20;;;;;;5086315;28;20111;-62
2023/09/20 09:22:42;;;;;;;7.72;4.00;;;768.20;1689.60;;;;;;5076268;28;20028;-60
2023/09/20 09:25:14;;;;;;;7.10;4.72;;;768.50;1715.20;;;;;;5086765;28;20031;-61
2023/09/20 09:27:42;;;;;;;6.78;4.07;;;768.10;1715.20;;;;;;5093265;28;20020;-62
2023/09/20 09:30:12;;;;;;;9.77;3.90;;;768.10;1689.60;;;;;;5092178;28;20470;-62
2023/09/20 09:32:39;;;;;;;10.27;4.18;;;743.30;1715.20;;;;;;5092714;28;20039;-62
2023/09/20 09:35:06;;;;;;;12.38;4.15;;;742.90;1766.40;;;;;;5092381;28;20218;-62
2023/09/20 09:37:34;;;;;;;5.28;3.10;;;742.90;1740.80;;;;;;5086488;28;20040;-63
2023/09/20 09:40:02;;;;;;;4.85;3.55;;;743.00;1740.80;;;;;;5081707;28;20421;-63
2023/09/20 09:42:28;;;;;;;4.95;3.53;;;743.00;1715.20;;;;;;5092230;28;20028;-63
2023/09/20 09:45:03;;;;;;;3.72;3.20;;;742.70;1715.20;;;;;;5092145;28;20020;-61
2023/09/20 09:47:30;;;;;;;5.47;3.92;;;742.90;1740.80;;;;;;5092225;28;20563;-61
2023/09/20 09:49:59;;;;;;;5.00;3.60;;;742.70;1766.40;;;;;;5076941;28;20073;-61
2023/09/20 09:52:27;;;;;;;5.03;3.60;;;742.80;1766.40;;;;;;5068607;28;20108;-61
2023/09/20 09:54:54;;;;;;;8.85;3.97;;;742.50;1766.40;;;;;;5086981;28;20032;-61
2023/09/20 09:57:20;;;;;;;6.93;4.30;;;717.50;1792.00;;;;;;5091799;28;20568;-61
2023/09/20 09:59:51;;;;;;;8.20;4.18;;;742.40;1792.00;;;;;;5092240;28;20020;-61
2023/09/20 10:02:21;;;;;;;7.30;4.25;;;742.60;1792.00;;;;;;5091797;28;20024;-61
2023/09/20 10:05:02;;;;;;;7.20;4.20;;;742.40;1792.00;;;;;;5091516;28;20128;-61
2023/09/20 10:07:31;;;;;;;9.43;4.88;;;742.60;1792.00;;;;;;5080685;28;20029;-61
2023/09/20 10:10:08;;;;;;;6.57;4.05;;;717.70;1766.40;;;;;;5082983;28;20044;-60
2023/09/20 10:12:36;;;;;;;7.85;3.80;;;742.60;1766.40;;;;;;5079692;28;20040;-61
2023/09/20 10:15:06;;;;;;;8.50;4.40;;;742.60;1766.40;;;;;;5076616;28;20569;-62
2023/09/20 10:17:32;;;;;;;8.65;4.28;;;717.60;1766.40;;;;;;5091826;28;20123;-61
2023/09/20 10:19:58;;;;;;;6.65;4.00;;;742.40;1817.60;;;;;;5092010;28;20099;-61
2023/09/20 10:22:26;;;;;;;7.28;4.55;;;742.50;1817.60;;;;;;5066982;28;20047;-61
2023/09/20 10:24:58;;;;;;;5.85;4.65;;;742.50;1792.00;;;;;;5077153;28;20028;-61
2023/09/20 10:27:34;;;;;;;8.13;4.18;;;742.50;1792.00;;;;;;5091548;28;20032;-62
2023/09/20 10:30:11;;;;;;;8.18;4.28;;;742.50;1817.60;;;;;;5066541;28;20032;-62
2023/09/20 10:32:47;;;;;;;9.18;4.93;;;717.60;1766.40;;;;;;5083796;28;20081;-60
2023/09/20 10:35:33;;;;;;;6.65;4.95;;;717.50;1766.40;;;;;;5086229;28;20067;-62
2023/09/20 10:38:07;;;;;;;9.45;5.65;;;717.40;1766.40;;;;;;5090058;28;20509;-60
2023/09/20 10:40:45;;;;;;;9.27;5.85;;;717.40;1766.40;;;;;;5090696;28;20075;-61
2023/09/20 10:43:33;;;;;;;12.45;5.90;;;717.40;1792.00;;;;;;5087838;28;20020;-61
2023/09/20 10:46:00;;;;;;;9.68;5.47;;;717.20;1792.00;;;;;;5076868;28;20458;-60
2023/09/20 10:48:29;;;;;;;8.40;5.13;;;717.20;1843.20;;;;;;5077901;28;20013;-60
2023/09/20 10:50:58;;;;;;;7.07;5.28;;;717.40;1843.20;;;;;;5077399;28;20035;-60
2023/09/20 10:53:45;;;;;;;7.25;5.78;;;717.50;1843.20;;;;;;5072323;28;20078;-61
2023/09/20 10:56:32;;;;;;;10.63;5.47;;;717.30;1817.60;;;;;;5065540;28;20044;-61
2023/09/20 10:58:59;;;;;;;9.07;5.20;;;717.00;1792.00;;;;;;5079248;28;20503;-61
2023/09/20 11:01:25;;;;;;;7.95;5.78;;;716.90;1817.60;;;;;;5083961;28;20032;-61
2023/09/20 11:03:52;;;;;;;7.13;5.22;;;717.00;1843.20;;;;;;5079242;28;20096;-60
2023/09/20 11:06:18;;;;;;;8.60;5.20;;;717.30;1817.60;;;;;;5085037;28;20107;-60
2023/09/20 11:08:44;;;;;;;10.98;6.07;;;717.40;1868.80;;;;;;5075784;28;20190;-61
2023/09/20 11:11:15;;;;;;;9.52;5.00;;;717.60;1843.20;;;;;;5070040;28;20028;-60
2023/09/20 11:13:46;;;;;;;7.45;5.68;;;717.60;1792.00;;;;;;5070395;28;20115;-60
2023/09/20 11:16:13;;;;;;;11.70;6.15;;;717.70;1792.00;;;;;;5074716;28;20028;-60
2023/09/20 11:18:41;;;;;;;8.18;6.32;;;717.50;1792.00;;;;;;5084696;28;20024;-60
2023/09/20 11:21:07;;;;;;;8.15;5.57;;;717.70;1817.60;;;;;;5079581;28;20028;-61
2023/09/20 11:23:34;;;;;;;10.30;5.53;;;717.50;1817.60;;;;;;5076136;28;20493;-61
2023/09/20 11:26:00;;;;;;;10.30;6.18;;;717.40;1817.60;;;;;;5079847;28;20042;-63
2023/09/20 11:28:27;;;;;;;11.90;6.20;;;717.50;1817.60;;;;;;5090275;28;20102;-61
2023/09/20 11:30:53;;;;;;;12.25;6.28;;;717.60;1817.60;;;;;;5089641;28;20085;-62
2023/09/20 11:33:29;;;;;;;10.93;5.68;;;717.20;1817.60;;;;;;5088792;28;20024;-61
2023/09/20 11:35:55;;;;;;;10.13;5.95;;;717.20;1817.60;;;;;;5081818;28;20032;-63
2023/09/20 11:38:22;;;;;;;10.38;6.53;;;716.90;1843.20;;;;;;5074167;28;20052;-62
2023/09/20 11:40:47;;;;;;;7.85;5.95;;;716.80;1868.80;;;;;;5077718;28;20060;-60
2023/09/20 11:43:21;;;;;;;8.32;6.20;;;717.10;1843.20;;;;;;5073051;28;20413;-62
2023/09/20 11:45:50;;;;;;;9.07;6.22;;;717.10;1843.20;;;;;;5078528;28;20032;-61
2023/09/20 11:48:16;;;;;;;9.60;6.30;;;717.10;1843.20;;;;;;5079153;28;20081;-61
2023/09/20 11:50:45;;;;;;;9.38;6.25;;;717.40;1843.20;;;;;;5088517;28;20024;-60
2023/09/20 11:53:15;;;;;;;9.45;6.18;;;717.10;1843.20;;;;;;5060152;28;20454;-62
2023/09/20 11:55:44;;;;;;;10.13;6.47;;;716.90;1843.20;;;;;;5078483;28;20059;-60
2023/09/20 11:58:10;;;;;;;7.10;5.45;;;717.30;1843.20;;;;;;5089940;28;20063;-61
2023/09/20 12:00:36;;;;;;;10.38;6.55;;;717.20;1843.20;;;;;;5086704;28;20055;-60
2023/09/20 12:03:03;;;;;;;12.38;6.55;;;717.20;1843.20;;;;;;5081573;28;20053;-60
2023/09/20 12:05:29;;;;;;;14.68;6.43;;;717.00;1868.80;;;;;;5083569;28;20024;-61
2023/09/20 12:07:58;;;;;;;9.85;5.85;;;717.00;1868.80;;;;;;5061308;28;20042;-61
2023/09/20 12:10:28;;;;;;;13.68;6.75;;;717.30;1843.20;;;;;;5082678;28;20067;-61
2023/09/20 12:12:54;;;;;;;6.90;5.93;;;717.20;1843.20;;;;;;5087530;28;20034;-61
2023/09/20 12:15:23;;;;;;;12.13;6.60;;;717.40;1843.20;;;;;;5087857;28;20032;-61
2023/09/20 12:17:56;;;;;;;10.93;6.60;;;717.10;1843.20;;;;;;5083608;28;20032;-61
2023/09/20 12:20:24;;;;;;;12.75;7.70;;;717.20;1843.20;;;;;;5079438;28;20467;-61
2023/09/20 12:22:55;;;;;;;8.73;6.40;;;717.30;1843.20;;;;;;5070038;28;20032;-61
2023/09/20 12:25:21;;;;;;;10.27;6.18;;;717.20;1843.20;;;;;;5080350;28;20034;-60
2023/09/20 12:27:47;;;;;;;13.05;7.10;;;717.20;1843.20;;;;;;5087304;28;20028;-61
2023/09/20 12:30:13;;;;;;;8.52;7.18;;;717.40;1868.80;;;;;;5088486;28;20092;-61
2023/09/20 12:32:41;;;;;;;11.55;8.05;;;717.20;1868.80;;;;;;5087423;28;20052;-61
2023/09/20 12:35:10;;;;;;;7.78;6.63;;;717.20;1868.80;;;;;;5089041;28;20032;-61
2023/09/20 12:37:37;;;;;;;16.77;8.52;;;717.40;1868.80;;;;;;5082190;28;20029;-61
2023/09/20 12:40:10;;;;;;;13.10;7.25;;;717.20;1868.80;;;;;;5086234;28;20036;-60
2023/09/20 12:42:38;;;;;;;29.00;26.40;;;717.40;1868.80;;;;;;5070641;28;20044;-62
2023/09/20 12:45:08;;;;;;;22.33;17.88;;;717.30;1868.80;;;;;;5087443;28;20024;-62
2023/09/20 12:47:39;;;;;;;11.90;8.90;;;717.40;1868.80;;;;;;5075065;28;20217;-61
2023/09/20 12:50:07;;;;;;;9.45;8.10;;;717.30;1843.20;;;;;;5087479;28;20024;-62
2023/09/20 12:52:33;;;;;;;10.70;8.10;;;717.40;1843.20;;;;;;5062961;28;20403;-61
2023/09/20 12:54:59;;;;;;;13.63;8.63;;;717.60;1843.20;;;;;;5075240;28;20568;-62
2023/09/20 12:57:25;;;;;;;12.10;8.27;;;717.40;1843.20;;;;;;5088595;28;20047;-61
2023/09/20 12:59:52;;;;;;;11.75;7.55;;;717.40;1843.20;;;;;;5082686;28;20021;-61
2023/09/20 13:02:18;;;;;;;13.60;8.40;;;717.40;1843.20;;;;;;5081669;28;20119;-61
2023/09/20 13:04:46;;;;;;;16.45;8.07;;;717.60;1843.20;;;;;;5074566;28;20111;-61
2023/09/20 13:07:12;;;;;;;15.15;7.90;;;717.70;1843.20;;;;;;5087305;28;20495;-61